createdAt,value
2019-01-20T00:00:40.203Z,59.57
2019-01-20T00:03:08.542Z,59.35
2019-01-20T00:05:36.872Z,59.61
2019-01-20T00:08:05.832Z,59.44
2019-01-20T00:10:34.190Z,59.95
2019-01-20T00:13:02.611Z,59.64
2019-01-20T00:15:31.139Z,59.88
2019-01-20T00:18:00.053Z,60.38
2019-01-20T00:20:28.466Z,60.22
2019-01-20T00:22:56.911Z,60.01
2019-01-20T00:25:25.350Z,60.40
2019-01-20T00:27:53.678Z,60.25
2019-01-20T00:30:22.258Z,60.67
2019-01-20T00:32:50.610Z,60.46
2019-01-20T00:35:19.028Z,60.84
2019-01-20T00:37:47.409Z,60.89
2019-01-20T00:40:16.513Z,61.26
2019-01-20T00:42:45.299Z,61.11
2019-01-20T00:45:16.193Z,61.55
2019-01-20T00:47:44.627Z,60.81
2019-01-20T00:50:16.317Z,60.79
2019-01-20T00:52:44.813Z,60.23
2019-01-20T00:55:17.418Z,60.32
2019-01-20T00:57:45.916Z,59.99
2019-01-20T01:00:19.420Z,60.22
2019-01-20T01:02:48.109Z,60.37
2019-01-20T01:05:17.277Z,60.69
2019-01-20T01:07:46.135Z,59.84
2019-01-20T01:10:15.685Z,59.91
2019-01-20T01:12:44.195Z,59.88
2019-01-20T01:15:13.456Z,59.80
2019-01-20T01:17:41.879Z,59.23
2019-01-20T01:20:14.014Z,59.98
2019-01-20T01:22:42.521Z,59.24
2019-01-20T01:25:12.880Z,60.04
2019-01-20T01:27:41.754Z,60.11
2019-01-20T01:30:14.726Z,59.50
2019-01-20T01:32:43.181Z,59.80
2019-01-20T01:35:12.686Z,60.03
2019-01-20T01:37:41.089Z,60.32
2019-01-20T01:40:11.875Z,60.42
2019-01-20T01:42:40.270Z,60.08
2019-01-20T01:45:13.906Z,59.99
2019-01-20T01:47:42.241Z,59.46
2019-01-20T01:50:12.207Z,59.60
2019-01-20T01:52:40.517Z,59.72
2019-01-20T01:55:10.205Z,59.72
2019-01-20T01:57:38.519Z,59.85
2019-01-20T02:00:12.577Z,60.90
2019-01-20T02:02:40.928Z,60.23
2019-01-20T02:05:09.653Z,60.72
2019-01-20T02:07:38.102Z,60.36
2019-01-20T02:10:10.006Z,59.89
2019-01-20T02:12:38.417Z,59.99
2019-01-20T02:15:08.956Z,60.08
2019-01-20T02:17:37.289Z,59.50
2019-01-20T02:20:09.218Z,60.14
2019-01-20T02:22:37.582Z,59.89
2019-01-20T02:25:06.337Z,59.79
2019-01-20T02:27:35.730Z,60.16
2019-01-20T02:30:09.013Z,60.73
2019-01-20T02:32:37.627Z,60.94
2019-01-20T02:35:06.122Z,60.76
2019-01-20T02:37:34.460Z,60.69
2019-01-20T02:40:04.846Z,60.19
2019-01-20T02:42:33.165Z,59.73
2019-01-20T02:45:01.575Z,59.50
2019-01-20T02:47:29.890Z,59.43
2019-01-20T02:49:58.232Z,59.19
2019-01-20T02:52:26.557Z,59.42
2019-01-20T02:54:54.901Z,60.60
2019-01-20T02:57:23.250Z,60.16
2019-01-20T02:59:51.609Z,59.91
2019-01-20T03:02:20.036Z,60.54
2019-01-20T03:04:48.418Z,60.70
2019-01-20T03:07:16.737Z,59.96
2019-01-20T03:09:45.086Z,60.30
2019-01-20T03:12:13.568Z,60.97
2019-01-20T03:14:41.940Z,60.14
2019-01-20T03:17:10.721Z,59.74
2019-01-20T03:19:39.072Z,59.64
2019-01-20T03:22:07.413Z,59.66
2019-01-20T03:24:35.788Z,60.36
2019-01-20T03:27:04.292Z,60.24
2019-01-20T03:29:32.635Z,60.03
2019-01-20T03:32:00.967Z,60.00
2019-01-20T03:34:29.367Z,59.79
2019-01-20T03:36:58.806Z,60.38
2019-01-20T03:39:27.114Z,61.25
2019-01-20T03:41:55.548Z,60.67
2019-01-20T03:44:23.893Z,61.52
2019-01-20T03:46:52.268Z,60.88
2019-01-20T03:49:20.606Z,61.35
2019-01-20T03:51:49.009Z,61.16
2019-01-20T03:54:17.761Z,61.40
2019-01-20T03:56:46.110Z,61.15
2019-01-20T03:59:14.520Z,61.05
2019-01-20T04:01:42.895Z,61.50
2019-01-20T04:04:11.565Z,60.78
2019-01-20T04:06:39.894Z,61.02
2019-01-20T04:09:08.401Z,60.88
2019-01-20T04:11:36.792Z,61.18
2019-01-20T04:14:05.309Z,61.14
2019-01-20T04:16:33.680Z,61.10
2019-01-20T04:19:01.996Z,61.23
2019-01-20T04:21:30.338Z,61.53
2019-01-20T04:23:58.680Z,61.51
2019-01-20T04:26:27.022Z,61.12
2019-01-20T04:28:55.354Z,60.95
2019-01-20T04:31:23.728Z,60.77
2019-01-20T04:33:52.067Z,61.52
2019-01-20T04:36:20.473Z,60.74
2019-01-20T04:38:48.795Z,61.24
2019-01-20T04:41:17.125Z,61.53
2019-01-20T04:43:45.462Z,61.76
2019-01-20T04:46:13.794Z,61.78
2019-01-20T04:48:42.154Z,62.47
2019-01-20T04:51:11.110Z,61.96
2019-01-20T04:53:40.053Z,61.95
2019-01-20T04:56:08.460Z,62.32
2019-01-20T04:58:36.962Z,61.79
2019-01-20T05:01:05.280Z,62.03
2019-01-20T05:03:33.612Z,62.51
2019-01-20T05:06:01.999Z,61.66
2019-01-20T05:08:30.363Z,62.21
2019-01-20T05:10:58.711Z,61.31
2019-01-20T05:13:27.078Z,61.39
2019-01-20T05:15:55.440Z,61.47
2019-01-20T05:18:23.800Z,62.20
2019-01-20T05:20:52.154Z,62.16
2019-01-20T05:23:20.515Z,62.12
2019-01-20T05:25:48.841Z,62.80
2019-01-20T05:28:17.208Z,62.88
2019-01-20T05:30:45.526Z,62.31
2019-01-20T05:33:13.875Z,61.91
2019-01-20T05:35:42.211Z,63.10
2019-01-20T05:38:11.074Z,63.78
2019-01-20T05:40:39.425Z,63.31
2019-01-20T05:43:07.794Z,63.43
2019-01-20T05:45:36.266Z,62.84
2019-01-20T05:48:04.809Z,62.38
2019-01-20T05:50:33.156Z,62.15
2019-01-20T05:53:01.488Z,63.46
2019-01-20T05:55:29.834Z,63.32
2019-01-20T05:57:58.180Z,63.06
2019-01-20T06:00:28.220Z,63.36
2019-01-20T06:02:56.624Z,63.42
2019-01-20T06:05:24.959Z,63.75
2019-01-20T06:07:53.313Z,63.83
2019-01-20T06:10:21.750Z,64.05
2019-01-20T06:12:54.277Z,63.87
2019-01-20T06:15:22.142Z,63.75
2019-01-20T06:17:50.540Z,64.19
2019-01-20T06:20:18.937Z,64.18
2019-01-20T06:22:47.399Z,64.21
2019-01-20T06:25:15.767Z,64.04
2019-01-20T06:27:44.810Z,63.64
2019-01-20T06:30:18.713Z,63.55
2019-01-20T06:32:47.093Z,63.01
2019-01-20T06:35:15.510Z,63.69
2019-01-20T06:37:43.879Z,63.45
2019-01-20T06:40:13.569Z,63.35
2019-01-20T06:42:41.938Z,63.21
2019-01-20T06:45:13.639Z,63.29
2019-01-20T06:47:42.117Z,64.43
2019-01-20T06:50:12.713Z,64.83
2019-01-20T06:52:41.144Z,64.35
2019-01-20T06:55:11.465Z,64.76
2019-01-20T06:57:39.780Z,64.67
2019-01-20T07:00:13.068Z,64.54
2019-01-20T07:02:41.414Z,64.63
2019-01-20T07:05:10.324Z,64.38
2019-01-20T07:07:38.748Z,64.59
2019-01-20T07:10:10.852Z,65.50
2019-01-20T07:12:39.168Z,64.42
2019-01-20T07:15:11.415Z,64.89
2019-01-20T07:17:39.746Z,64.80
2019-01-20T07:20:09.864Z,64.62
2019-01-20T07:22:38.211Z,64.84
2019-01-20T07:25:09.852Z,64.44
2019-01-20T07:27:38.161Z,64.72
2019-01-20T07:30:09.059Z,63.62
2019-01-20T07:32:37.483Z,62.78
2019-01-20T07:35:08.516Z,62.31
2019-01-20T07:37:36.833Z,62.52
2019-01-20T07:40:09.277Z,61.72
2019-01-20T07:42:37.724Z,61.81
2019-01-20T07:45:10.677Z,62.29
2019-01-20T07:47:39.163Z,60.67
2019-01-20T07:50:12.756Z,61.53
2019-01-20T07:52:41.074Z,62.93
2019-01-20T07:55:09.946Z,63.25
2019-01-20T07:57:39.139Z,63.13
2019-01-20T08:00:12.712Z,63.85
2019-01-20T08:02:41.122Z,62.75
2019-01-20T08:05:10.850Z,62.27
2019-01-20T08:07:39.259Z,73.06
2019-01-20T08:10:11.374Z,66.49
2019-01-20T08:12:39.693Z,66.10
2019-01-20T08:15:10.160Z,58.88
2019-01-20T08:17:38.487Z,57.65
2019-01-20T08:20:10.475Z,55.40
2019-01-20T08:22:38.785Z,57.85
2019-01-20T08:25:10.119Z,59.20
2019-01-20T08:27:38.491Z,60.93
2019-01-20T08:30:10.539Z,60.79
2019-01-20T08:32:39.001Z,61.49
2019-01-20T08:35:09.234Z,57.83
2019-01-20T08:37:37.591Z,58.64
2019-01-20T08:40:11.183Z,59.01
2019-01-20T08:42:40.209Z,57.15
2019-01-20T08:45:15.217Z,57.70
2019-01-20T08:47:45.182Z,59.42
2019-01-20T08:50:14.151Z,57.81
2019-01-20T08:52:42.578Z,59.36
2019-01-20T08:55:11.348Z,61.00
2019-01-20T08:57:39.724Z,59.01
2019-01-20T09:00:12.669Z,60.52
2019-01-20T09:02:41.028Z,58.86
2019-01-20T09:05:10.753Z,59.41
2019-01-20T09:07:39.303Z,61.08
2019-01-20T09:10:11.235Z,61.10
2019-01-20T09:12:40.310Z,60.79
2019-01-20T09:15:08.863Z,59.89
2019-01-20T09:17:37.420Z,57.87
2019-01-20T09:20:10.071Z,56.63
2019-01-20T09:22:38.417Z,57.42
2019-01-20T09:25:10.120Z,58.96
2019-01-20T09:27:38.470Z,59.28
2019-01-20T09:30:15.326Z,58.91
2019-01-20T09:32:44.969Z,58.07
2019-01-20T09:35:13.550Z,57.78
2019-01-20T09:37:42.052Z,58.61
2019-01-20T09:40:12.111Z,59.17
2019-01-20T09:42:40.910Z,58.87
2019-01-20T09:45:15.553Z,59.84
2019-01-20T09:47:44.118Z,59.96
2019-01-20T09:50:12.597Z,59.11
2019-01-20T09:52:41.189Z,60.18
2019-01-20T09:55:11.422Z,59.76
2019-01-20T09:57:39.983Z,59.89
2019-01-20T10:00:12.658Z,60.29
2019-01-20T10:02:41.151Z,59.75
2019-01-20T10:05:10.649Z,60.46
2019-01-20T10:07:39.112Z,60.21
2019-01-20T10:10:11.791Z,60.12
2019-01-20T10:12:40.682Z,58.46
2019-01-20T10:15:12.927Z,58.71
2019-01-20T10:17:41.408Z,58.79
2019-01-20T10:20:15.614Z,58.71
2019-01-20T10:22:44.163Z,58.75
2019-01-20T10:25:15.124Z,58.80
2019-01-20T10:27:43.086Z,58.58
2019-01-20T10:30:13.578Z,58.88
2019-01-20T10:32:41.956Z,59.49
2019-01-20T10:35:11.094Z,59.02
2019-01-20T10:37:39.427Z,58.77
2019-01-20T10:40:08.575Z,58.51
2019-01-20T10:42:36.979Z,58.58
2019-01-20T10:45:09.576Z,59.22
2019-01-20T10:47:37.951Z,59.08
2019-01-20T10:50:11.005Z,58.28
2019-01-20T10:52:39.387Z,58.84
2019-01-20T10:55:08.629Z,58.24
2019-01-20T10:57:37.285Z,57.38
2019-01-20T11:00:11.293Z,56.75
2019-01-20T11:02:39.705Z,57.08
2019-01-20T11:05:09.862Z,56.44
2019-01-20T11:07:38.267Z,57.24
2019-01-20T11:10:10.438Z,57.37
2019-01-20T11:12:38.870Z,57.92
2019-01-20T11:15:11.226Z,57.91
2019-01-20T11:17:39.593Z,57.50
2019-01-20T11:20:11.510Z,58.04
2019-01-20T11:22:39.914Z,58.36
2019-01-20T11:25:10.266Z,57.80
2019-01-20T11:27:38.581Z,58.55
2019-01-20T11:30:10.302Z,57.45
2019-01-20T11:32:42.431Z,57.62
2019-01-20T11:35:14.840Z,57.27
2019-01-20T11:37:43.459Z,57.34
2019-01-20T11:40:13.430Z,57.21
2019-01-20T11:42:41.990Z,57.32
2019-01-20T11:45:17.698Z,57.01
2019-01-20T11:47:46.116Z,56.16
2019-01-20T11:50:15.280Z,56.87
2019-01-20T11:52:43.786Z,56.93
2019-01-20T11:55:15.671Z,57.35
2019-01-20T11:57:44.066Z,57.78
2019-01-20T12:00:15.885Z,55.85
2019-01-20T12:02:44.373Z,57.04
2019-01-20T12:05:13.461Z,56.60
2019-01-20T12:07:41.874Z,56.54
2019-01-20T12:10:11.223Z,56.18
2019-01-20T12:12:40.378Z,55.79
2019-01-20T12:15:11.968Z,55.68
2019-01-20T12:17:40.456Z,56.25
2019-01-20T12:20:11.168Z,56.54
2019-01-20T12:22:39.567Z,56.64
2019-01-20T12:25:13.503Z,55.17
2019-01-20T12:27:41.853Z,56.36
2019-01-20T12:30:14.506Z,56.35
2019-01-20T12:32:42.930Z,56.15
2019-01-20T12:35:11.625Z,55.72
2019-01-20T12:37:39.972Z,55.64
2019-01-20T12:40:12.811Z,55.81
2019-01-20T12:42:41.138Z,55.40
2019-01-20T12:45:10.030Z,54.82
2019-01-20T12:47:38.461Z,54.69
2019-01-20T12:50:10.120Z,54.86
2019-01-20T12:52:38.427Z,55.16
2019-01-20T12:55:07.855Z,54.76
2019-01-20T12:57:36.531Z,55.08
2019-01-20T13:00:09.862Z,54.61
2019-01-20T13:02:38.456Z,55.05
2019-01-20T13:05:07.617Z,54.90
2019-01-20T13:07:36.134Z,54.15
2019-01-20T13:10:08.408Z,55.39
2019-01-20T13:12:36.881Z,54.31
2019-01-20T13:15:09.034Z,54.37
2019-01-20T13:17:37.442Z,54.21
2019-01-20T13:20:09.925Z,54.25
2019-01-20T13:22:38.330Z,53.74
2019-01-20T13:25:08.721Z,55.08
2019-01-20T13:27:37.138Z,53.51
2019-01-20T13:30:08.385Z,54.29
2019-01-20T13:32:36.727Z,54.77
2019-01-20T13:35:08.660Z,53.71
2019-01-20T13:37:40.317Z,53.67
2019-01-20T13:40:16.038Z,54.57
2019-01-20T13:42:44.430Z,55.11
2019-01-20T13:45:13.309Z,54.48
2019-01-20T13:47:48.501Z,54.56
2019-01-20T13:50:15.868Z,55.38
2019-01-20T13:52:44.315Z,54.84
2019-01-20T13:55:14.268Z,54.04
2019-01-20T13:57:42.676Z,53.87
2019-01-20T14:00:14.518Z,53.48
2019-01-20T14:02:42.941Z,53.85
2019-01-20T14:05:11.393Z,54.56
2019-01-20T14:07:39.754Z,54.34
2019-01-20T14:10:12.457Z,53.91
2019-01-20T14:12:40.892Z,54.03
2019-01-20T14:15:11.864Z,53.70
2019-01-20T14:17:40.209Z,53.77
2019-01-20T14:20:12.066Z,53.22
2019-01-20T14:22:40.412Z,53.41
2019-01-20T14:25:10.611Z,53.42
2019-01-20T14:27:39.496Z,53.92
2019-01-20T14:30:11.399Z,54.18
2019-01-20T14:32:39.778Z,54.22
2019-01-20T14:35:09.412Z,53.94
2019-01-20T14:37:37.782Z,53.48
2019-01-20T14:40:10.308Z,53.51
2019-01-20T14:42:38.658Z,53.60
2019-01-20T14:45:10.168Z,53.69
2019-01-20T14:47:38.498Z,52.96
2019-01-20T14:50:09.679Z,53.36
2019-01-20T14:52:38.023Z,53.30
2019-01-20T14:55:09.341Z,52.58
2019-01-20T14:57:37.892Z,52.23
2019-01-20T15:00:21.330Z,52.16
2019-01-20T15:02:49.773Z,52.17
2019-01-20T15:05:18.279Z,53.38
2019-01-20T15:07:46.686Z,52.99
2019-01-20T15:10:15.985Z,53.13
2019-01-20T15:12:44.382Z,53.21
2019-01-20T15:15:17.185Z,53.09
2019-01-20T15:17:45.645Z,53.04
2019-01-20T15:20:14.665Z,52.84
2019-01-20T15:22:43.068Z,53.56
2019-01-20T15:25:14.153Z,54.01
2019-01-20T15:27:42.622Z,53.73
2019-01-20T15:30:16.093Z,53.86
2019-01-20T15:32:44.527Z,53.48
2019-01-20T15:35:13.042Z,53.63
2019-01-20T15:37:41.383Z,53.78
2019-01-20T15:40:13.974Z,54.54
2019-01-20T15:42:43.080Z,55.02
2019-01-20T15:45:16.494Z,55.47
2019-01-20T15:47:44.864Z,55.93
2019-01-20T15:50:16.777Z,56.75
2019-01-20T15:52:45.211Z,58.11
2019-01-20T15:55:13.909Z,58.21
2019-01-20T15:57:42.212Z,58.38
2019-01-20T16:00:15.700Z,58.76
2019-01-20T16:02:44.094Z,59.11
2019-01-20T16:05:12.554Z,59.54
2019-01-20T16:07:40.915Z,59.66
2019-01-20T16:10:12.015Z,59.63
2019-01-20T16:12:40.518Z,59.75
2019-01-20T16:15:13.653Z,59.57
2019-01-20T16:17:42.369Z,59.57
2019-01-20T16:20:14.902Z,59.59
2019-01-20T16:22:43.372Z,60.16
2019-01-20T16:25:15.802Z,60.60
2019-01-20T16:27:44.200Z,60.31
2019-01-20T16:30:16.363Z,60.82
2019-01-20T16:32:44.714Z,60.85
2019-01-20T16:35:13.512Z,61.23
2019-01-20T16:37:41.907Z,61.13
2019-01-20T16:40:14.795Z,61.76
2019-01-20T16:42:43.142Z,62.00
2019-01-20T16:45:15.218Z,61.74
2019-01-20T16:47:43.677Z,61.85
2019-01-20T16:50:16.523Z,61.77
2019-01-20T16:52:45.237Z,61.94
2019-01-20T16:55:14.982Z,61.72
2019-01-20T16:58:09.516Z,62.09
2019-01-20T17:00:39.994Z,62.41
2019-01-20T17:03:08.409Z,61.42
2019-01-20T17:05:37.017Z,62.00
2019-01-20T17:08:05.581Z,62.44
2019-01-20T17:10:36.362Z,61.66
2019-01-20T17:13:05.130Z,61.53
2019-01-20T17:15:39.873Z,61.84
2019-01-20T17:18:08.137Z,61.92
2019-01-20T17:20:36.537Z,61.69
2019-01-20T17:23:04.964Z,61.72
2019-01-20T17:25:33.370Z,62.11
2019-01-20T17:28:01.777Z,61.85
2019-01-20T17:30:34.017Z,61.53
2019-01-20T17:33:02.747Z,61.29
2019-01-20T17:35:31.097Z,61.70
2019-01-20T17:37:59.566Z,61.96
2019-01-20T17:40:28.862Z,62.46
2019-01-20T17:42:57.290Z,62.47
2019-01-20T17:45:27.538Z,62.41
2019-01-20T17:47:55.953Z,62.68
2019-01-20T17:50:27.133Z,62.96
2019-01-20T17:52:55.587Z,63.80
2019-01-20T17:55:24.009Z,64.11
2019-01-20T17:57:52.433Z,64.45
2019-01-20T18:00:24.260Z,64.00
2019-01-20T18:02:52.710Z,64.60
2019-01-20T18:05:24.597Z,64.73
2019-01-20T18:07:53.091Z,64.23
2019-01-20T18:10:21.591Z,63.99
2019-01-20T18:12:50.002Z,64.72
2019-01-20T18:15:21.199Z,64.30
2019-01-20T18:17:49.631Z,64.70
2019-01-20T18:20:20.310Z,64.28
2019-01-20T18:22:48.747Z,64.46
2019-01-20T18:25:18.294Z,64.00
2019-01-20T18:27:46.678Z,64.50
2019-01-20T18:30:16.761Z,64.78
2019-01-20T18:32:45.171Z,64.35
2019-01-20T18:35:14.557Z,64.63
2019-01-20T18:37:43.812Z,64.81
2019-01-20T18:40:14.910Z,64.51
2019-01-20T18:42:43.521Z,64.59
2019-01-20T18:45:14.549Z,65.44
2019-01-20T18:47:43.607Z,65.01
2019-01-20T18:50:15.408Z,64.93
2019-01-20T18:52:43.841Z,64.66
2019-01-20T18:55:15.095Z,64.70
2019-01-20T18:57:44.867Z,64.28
2019-01-20T19:00:16.954Z,64.50
2019-01-20T19:02:45.298Z,64.33
2019-01-20T19:05:17.193Z,64.53
2019-01-20T19:07:45.709Z,64.65
2019-01-20T19:10:15.713Z,65.05
2019-01-20T19:12:44.181Z,65.35
2019-01-20T19:15:16.076Z,65.21
2019-01-20T19:17:44.479Z,64.98
2019-01-20T19:20:14.363Z,65.00
2019-01-20T19:22:42.751Z,65.07
2019-01-20T19:25:13.137Z,64.56
2019-01-20T19:27:41.514Z,64.29
2019-01-20T19:30:14.807Z,64.59
2019-01-20T19:32:43.144Z,65.07
2019-01-20T19:35:12.359Z,64.57
2019-01-20T19:37:40.686Z,64.69
2019-01-20T19:40:12.228Z,64.47
2019-01-20T19:42:40.786Z,64.47
2019-01-20T19:45:12.367Z,65.17
2019-01-20T19:47:40.756Z,64.84
2019-01-20T19:50:11.739Z,65.14
2019-01-20T19:52:40.328Z,64.71
2019-01-20T19:55:11.630Z,65.17
2019-01-20T19:57:40.095Z,65.75
2019-01-20T20:00:12.788Z,66.04
2019-01-20T20:02:41.228Z,64.95
2019-01-20T20:05:13.451Z,64.23
2019-01-20T20:07:41.873Z,64.86
2019-01-20T20:10:15.010Z,65.25
2019-01-20T20:12:43.365Z,65.66
2019-01-20T20:15:15.630Z,65.18
2019-01-20T20:17:44.000Z,64.39
2019-01-20T20:20:15.465Z,64.03
2019-01-20T20:22:43.888Z,64.33
2019-01-20T20:25:14.850Z,65.47
2019-01-20T20:27:43.470Z,66.32
2019-01-20T20:30:15.027Z,65.68
2019-01-20T20:32:43.542Z,65.48
2019-01-20T20:35:13.114Z,65.51
2019-01-20T20:37:41.573Z,66.22
2019-01-20T20:40:12.957Z,66.13
2019-01-20T20:42:41.394Z,66.30
2019-01-20T20:45:11.753Z,65.34
2019-01-20T20:47:40.160Z,64.83
2019-01-20T20:50:11.863Z,64.64
2019-01-20T20:52:45.909Z,64.61
2019-01-20T20:55:11.296Z,65.68
2019-01-20T20:57:39.633Z,65.98
2019-01-20T21:00:12.988Z,65.75
2019-01-20T21:02:41.394Z,64.39
2019-01-20T21:05:10.049Z,65.04
2019-01-20T21:07:38.457Z,65.96
2019-01-20T21:10:12.621Z,65.85
2019-01-20T21:12:40.956Z,64.78
2019-01-20T21:15:12.359Z,64.57
2019-01-20T21:17:47.919Z,64.51
2019-01-20T21:20:13.843Z,64.53
2019-01-20T21:22:42.178Z,64.60
2019-01-20T21:25:11.931Z,64.18
2019-01-20T21:27:40.338Z,63.85
2019-01-20T21:30:17.708Z,63.53
2019-01-20T21:32:46.037Z,63.77
2019-01-20T21:35:15.716Z,64.74
2019-01-20T21:37:44.083Z,65.69
2019-01-20T21:40:15.499Z,65.57
2019-01-20T21:42:43.925Z,66.11
2019-01-20T21:45:14.533Z,65.68
2019-01-20T21:47:42.962Z,66.08
2019-01-20T21:50:18.180Z,65.73
2019-01-20T21:52:46.755Z,64.52
2019-01-20T21:55:15.464Z,64.49
2019-01-20T21:57:43.943Z,65.11
2019-01-20T22:00:16.327Z,64.17
2019-01-20T22:02:44.859Z,63.46
2019-01-20T22:05:13.915Z,63.49
2019-01-20T22:07:42.518Z,64.31
2019-01-20T22:10:14.082Z,63.49
2019-01-20T22:12:42.611Z,63.85
2019-01-20T22:15:12.027Z,65.22
2019-01-20T22:17:40.537Z,64.41
2019-01-20T22:20:12.608Z,64.38
2019-01-20T22:22:41.377Z,64.20
2019-01-20T22:25:10.750Z,63.36
2019-01-20T22:27:39.357Z,63.40
2019-01-20T22:30:11.185Z,63.65
2019-01-20T22:32:39.556Z,63.19
2019-01-20T22:35:10.925Z,63.77
2019-01-20T22:37:39.434Z,63.79
2019-01-20T22:40:09.806Z,63.95
2019-01-20T22:42:38.337Z,64.10
2019-01-20T22:45:11.348Z,63.25
2019-01-20T22:47:39.663Z,63.29
2019-01-20T22:50:12.514Z,63.74
2019-01-20T22:52:41.171Z,63.26
2019-01-20T22:55:11.673Z,63.35
2019-01-20T22:57:41.285Z,63.73
2019-01-20T23:00:13.214Z,63.94
2019-01-20T23:02:42.322Z,63.72
2019-01-20T23:05:11.305Z,63.85
2019-01-20T23:07:40.145Z,64.27
2019-01-20T23:10:08.946Z,64.00
2019-01-20T23:12:38.410Z,63.51
2019-01-20T23:15:09.831Z,63.80
2019-01-20T23:17:38.137Z,63.69
2019-01-20T23:20:11.943Z,63.75
2019-01-20T23:22:41.434Z,63.22
2019-01-20T23:25:10.457Z,63.75
2019-01-20T23:27:38.838Z,63.71
2019-01-20T23:30:11.428Z,63.75
2019-01-20T23:32:40.270Z,63.25
2019-01-20T23:35:08.782Z,63.66
2019-01-20T23:37:37.182Z,63.65
2019-01-20T23:40:10.177Z,63.84
2019-01-20T23:42:38.521Z,64.20
2019-01-20T23:45:10.144Z,64.48
2019-01-20T23:47:38.619Z,64.62
2019-01-20T23:50:09.424Z,64.54
2019-01-20T23:52:37.867Z,64.46
2019-01-20T23:55:07.770Z,64.27
2019-01-20T23:57:36.130Z,65.12
